Time;durP1;ratioP1;P1;durP2;ratioP2;P2;SDS_P1;SDS_P2;PMS_P1;PMS_P2;Temp;Humidity;BMP_temperature;BMP_pressure;BME280_temperature;BME280_humidity;BME280_pressure;Samples;Min_cycle;Max_cycle;Signal;HPM_P1;HPM_P2
2022/09/04 00:01:11;;;;;;;3.35;1.67;;;17.60;57.10;;;;;;4135750;28;20062;-85
2022/09/04 00:03:19;;;;;;;4.80;1.60;;;17.60;57.60;;;;;;4135811;28;20076;-86
2022/09/04 00:05:28;;;;;;;7.00;1.10;;;17.50;57.30;;;;;;4134837;28;20057;-87
2022/09/04 00:07:35;;;;;;;4.13;1.05;;;17.50;57.40;;;;;;4135494;28;20537;-86
2022/09/04 00:09:48;;;;;;;2.78;1.20;;;17.50;57.80;;;;;;4119403;28;20046;-86
2022/09/04 00:12:04;;;;;;;2.45;1.13;;;17.40;57.80;;;;;;4135512;28;20115;-86
2022/09/04 00:14:56;;;;;;;4.53;1.30;;;17.40;58.00;;;;;;4118726;28;20054;-86
2022/09/04 00:17:02;;;;;;;5.25;1.40;;;17.40;58.50;;;;;;4135665;28;20549;-86
2022/09/04 00:19:08;;;;;;;2.47;1.05;;;17.40;57.90;;;;;;4136002;28;20042;-86
2022/09/04 00:21:35;;;;;;;3.90;1.25;;;17.30;58.00;;;;;;4135916;28;20106;-86
2022/09/04 00:23:47;;;;;;;5.85;1.50;;;17.30;59.00;;;;;;4135077;28;20046;-85
2022/09/04 00:26:00;;;;;;;4.07;1.30;;;17.30;58.40;;;;;;4134535;28;20046;-85
2022/09/04 00:28:30;;;;;;;1.92;0.93;;;17.20;58.50;;;;;;4134102;28;20088;-85
2022/09/04 00:30:31;;;;;;;4.00;2.20;;;17.20;58.70;;;;;;4133756;28;20050;-85
2022/09/04 00:32:50;;;;;;;2.15;1.00;;;17.20;58.40;;;;;;4132609;28;20571;-86
2022/09/04 00:35:31;;;;;;;3.88;1.52;;;17.20;58.90;;;;;;4132461;28;20145;-85
2022/09/04 00:38:10;;;;;;;5.45;2.15;;;17.10;59.40;;;;;;4134199;28;20046;-85
2022/09/04 00:40:14;;;;;;;1.85;1.15;;;17.10;59.40;;;;;;4131900;28;20101;-85
2022/09/04 00:42:33;;;;;;;1.60;0.85;;;17.10;58.80;;;;;;4147885;28;20424;-86
2022/09/04 00:44:59;;;;;;;1.60;1.05;;;17.00;59.40;;;;;;4152599;28;20050;-86
2022/09/04 00:47:22;;;;;;;5.15;1.35;;;17.00;59.50;;;;;;4150856;28;20649;-85
2022/09/04 00:49:40;;;;;;;2.92;1.13;;;17.00;59.80;;;;;;4152289;28;20038;-86
2022/09/04 00:52:02;;;;;;;4.50;1.80;;;16.90;59.70;;;;;;4150370;28;20053;-85
2022/09/04 00:54:08;;;;;;;2.25;1.20;;;16.90;60.10;;;;;;4150256;28;20053;-85
2022/09/04 00:56:39;;;;;;;5.30;1.20;;;16.90;59.20;;;;;;4151577;28;20038;-85
2022/09/04 00:58:54;;;;;;;3.92;1.85;;;16.90;60.20;;;;;;4150264;28;20080;-86
2022/09/04 01:00:58;;;;;;;2.60;1.10;;;16.90;60.20;;;;;;4150105;28;20049;-86
2022/09/04 01:03:22;;;;;;;1.95;1.25;;;16.80;59.80;;;;;;4150792;28;20373;-86
2022/09/04 01:06:01;;;;;;;5.18;1.55;;;16.80;60.80;;;;;;4134091;28;20046;-85
2022/09/04 01:08:19;;;;;;;2.15;1.20;;;16.80;60.80;;;;;;4150274;28;20539;-85
2022/09/04 01:10:40;;;;;;;3.38;0.85;;;16.70;60.70;;;;;;4133873;28;20054;-86
2022/09/04 01:13:02;;;;;;;2.83;1.30;;;16.70;60.60;;;;;;4150134;28;20405;-86
2022/09/04 01:15:20;;;;;;;5.18;1.00;;;16.70;60.60;;;;;;4150634;28;20511;-86
2022/09/04 01:17:26;;;;;;;3.60;1.02;;;16.60;61.10;;;;;;4149839;28;20046;-86
2022/09/04 01:19:49;;;;;;;1.20;1.10;;;16.60;60.70;;;;;;4149785;28;20412;-86
2022/09/04 01:22:29;;;;;;;1.52;1.00;;;16.50;61.30;;;;;;4150706;28;20050;-86
2022/09/04 01:24:45;;;;;;;1.70;1.17;;;16.50;61.80;;;;;;4151637;28;20054;-86
2022/09/04 01:26:54;;;;;;;2.47;1.15;;;16.50;61.90;;;;;;4149934;28;20054;-86
2022/09/04 01:29:02;;;;;;;3.72;1.00;;;16.40;61.50;;;;;;4150773;28;20084;-86
2022/09/04 01:31:11;;;;;;;3.25;1.40;;;16.40;61.50;;;;;;4149804;28;20072;-86
2022/09/04 01:33:17;;;;;;;1.95;1.10;;;16.30;61.60;;;;;;4149753;28;20084;-86
2022/09/04 01:35:33;;;;;;;2.60;1.10;;;16.30;61.60;;;;;;4132895;28;20054;-87
2022/09/04 01:37:52;;;;;;;2.05;0.85;;;16.30;62.90;;;;;;4150903;28;20050;-86
2022/09/04 01:40:32;;;;;;;3.85;1.17;;;16.30;61.90;;;;;;4149391;28;20096;-86
2022/09/04 01:43:04;;;;;;;4.35;1.20;;;16.20;62.60;;;;;;4149959;28;20056;-86
2022/09/04 01:45:05;;;;;;;7.13;1.20;;;16.20;62.60;;;;;;4149675;28;20050;-86
2022/09/04 01:47:26;;;;;;;5.22;1.08;;;16.20;62.20;;;;;;4149647;28;20072;-86
2022/09/04 01:49:37;;;;;;;2.40;1.00;;;16.10;63.10;;;;;;4149177;28;20053;-86
2022/09/04 01:51:59;;;;;;;6.55;1.10;;;16.10;63.00;;;;;;4148939;28;20045;-85
2022/09/04 01:54:06;;;;;;;3.63;1.40;;;16.10;63.50;;;;;;4132869;28;20141;-86
2022/09/04 01:56:06;;;;;;;4.60;1.55;;;16.00;63.10;;;;;;4149858;28;20054;-86
2022/09/04 01:58:21;;;;;;;5.13;1.10;;;16.00;63.00;;;;;;4149557;28;20052;-86
2022/09/04 02:00:24;;;;;;;2.33;1.05;;;16.00;63.40;;;;;;4149180;28;20436;-86
2022/09/04 02:02:34;;;;;;;2.50;1.23;;;15.90;63.10;;;;;;4149475;28;20120;-87
2022/09/04 02:05:00;;;;;;;5.57;1.20;;;15.90;63.60;;;;;;4133678;28;20046;-85
2022/09/04 02:07:23;;;;;;;1.70;1.00;;;15.90;63.60;;;;;;4150897;28;20078;-86
2022/09/04 02:09:35;;;;;;;3.17;1.20;;;15.90;63.50;;;;;;4150110;28;20419;-87
2022/09/04 02:11:37;;;;;;;2.58;1.20;;;15.80;63.50;;;;;;4134256;28;20058;-87
2022/09/04 02:14:08;;;;;;;3.25;1.40;;;15.80;63.60;;;;;;4154891;28;20060;-88
2022/09/04 02:16:29;;;;;;;5.50;1.48;;;15.70;64.50;;;;;;4156209;28;20503;-87
2022/09/04 02:18:56;;;;;;;2.15;1.10;;;15.70;64.40;;;;;;4140040;28;20081;-87
2022/09/04 02:21:28;;;;;;;3.25;1.23;;;15.70;64.60;;;;;;4156144;28;20041;-87
2022/09/04 02:23:37;;;;;;;1.90;1.13;;;15.60;64.90;;;;;;4155157;28;20046;-86
2022/09/04 02:26:02;;;;;;;2.90;1.48;;;15.60;64.50;;;;;;4150735;28;20053;-87
2022/09/04 02:28:29;;;;;;;5.38;1.20;;;15.50;64.60;;;;;;4152424;28;20051;-86
2022/09/04 02:30:40;;;;;;;2.28;1.17;;;15.50;65.10;;;;;;4152871;28;20057;-86
2022/09/04 02:33:05;;;;;;;1.20;0.90;;;15.40;64.70;;;;;;4154335;28;20046;-87
2022/09/04 02:35:28;;;;;;;2.83;1.10;;;15.40;65.20;;;;;;4153888;28;20125;-88
2022/09/04 02:37:44;;;;;;;2.75;1.65;;;15.40;65.30;;;;;;4120318;28;20189;-87
2022/09/04 02:40:02;;;;;;;5.55;1.08;;;15.40;65.90;;;;;;4136961;28;20541;-87
2022/09/04 02:42:16;;;;;;;3.25;1.83;;;15.40;65.90;;;;;;4139505;28;20054;-85
2022/09/04 02:45:11;;;;;;;1.48;1.30;;;15.30;65.50;;;;;;4122645;28;20042;-86
2022/09/04 02:47:27;;;;;;;1.25;0.82;;;15.30;66.40;;;;;;4087648;29;20083;-87
2022/09/04 02:50:02;;;;;;;3.55;1.52;;;15.20;65.70;;;;;;4124448;28;20081;-86
2022/09/04 02:52:32;;;;;;;2.78;1.23;;;15.20;66.00;;;;;;4133250;28;20050;-86
2022/09/04 02:55:00;;;;;;;2.53;1.20;;;15.20;66.30;;;;;;4118288;28;20114;-86
2022/09/04 02:57:22;;;;;;;1.88;1.20;;;15.20;66.20;;;;;;4134067;28;20047;-86
2022/09/04 03:00:08;;;;;;;2.28;1.20;;;15.10;65.80;;;;;;4116121;28;20051;-86
2022/09/04 03:02:25;;;;;;;2.20;1.23;;;15.10;66.70;;;;;;4097435;28;20054;-86
2022/09/04 03:04:48;;;;;;;2.15;1.42;;;15.00;66.30;;;;;;4159439;28;20077;-85
2022/09/04 03:07:07;;;;;;;4.45;1.15;;;15.00;66.90;;;;;;4132828;28;20053;-86
2022/09/04 03:09:11;;;;;;;;;;;14.90;66.40;;;;;;4142670;28;20045;-86
2022/09/04 03:11:20;;;;;;;2.20;1.20;;;14.90;67.30;;;;;;4148970;28;19921;-87
2022/09/04 03:13:29;;;;;;;4.15;1.55;;;14.80;66.80;;;;;;4132618;28;20054;-87
2022/09/04 03:15:49;;;;;;;1.73;1.30;;;14.80;66.80;;;;;;4150248;28;20496;-86
2022/09/04 03:18:01;;;;;;;3.28;1.80;;;14.80;67.20;;;;;;4149740;28;20046;-86
2022/09/04 03:20:26;;;;;;;3.28;1.30;;;14.80;67.20;;;;;;4150086;28;20049;-87
2022/09/04 03:22:53;;;;;;;2.10;1.20;;;14.70;67.30;;;;;;4120612;28;20098;-87
2022/09/04 03:25:09;;;;;;;7.15;2.22;;;14.70;67.60;;;;;;4138523;28;20089;-86
2022/09/04 03:27:14;;;;;;;2.50;1.38;;;14.70;67.60;;;;;;4139364;28;20049;-86
2022/09/04 03:29:33;;;;;;;7.82;1.92;;;14.70;67.50;;;;;;4142242;28;20050;-85
2022/09/04 03:31:46;;;;;;;2.25;1.50;;;14.70;67.50;;;;;;4142372;28;20096;-86
2022/09/04 03:33:59;;;;;;;1.83;1.20;;;14.70;67.90;;;;;;4141024;28;20442;-87
2022/09/04 03:36:11;;;;;;;2.60;1.20;;;14.60;68.10;;;;;;4133778;28;20097;-85
2022/09/04 03:38:20;;;;;;;2.67;1.33;;;14.60;68.30;;;;;;4151262;28;20082;-86
2022/09/04 03:40:41;;;;;;;1.75;1.20;;;14.60;68.60;;;;;;4135044;28;20035;-86
2022/09/04 03:43:00;;;;;;;1.17;1.00;;;14.60;68.60;;;;;;4150683;28;20169;-86
2022/09/04 03:45:13;;;;;;;2.22;1.40;;;14.50;68.80;;;;;;4150677;28;20046;-86
2022/09/04 03:47:58;;;;;;;2.65;1.13;;;14.50;68.50;;;;;;4153793;28;20058;-86
2022/09/04 03:50:28;;;;;;;2.20;1.15;;;14.50;69.20;;;;;;4130898;28;20121;-86
2022/09/04 03:52:47;;;;;;;3.92;1.63;;;14.50;69.20;;;;;;4153770;28;20165;-86
2022/09/04 03:55:15;;;;;;;3.83;1.20;;;14.50;69.80;;;;;;4154588;28;20052;-87
2022/09/04 03:57:30;;;;;;;5.63;1.33;;;14.40;69.60;;;;;;4157427;28;20409;-86
2022/09/04 03:59:53;;;;;;;2.00;1.50;;;14.40;69.10;;;;;;4157859;28;20049;-87
2022/09/04 04:02:20;;;;;;;1.52;1.00;;;14.40;69.70;;;;;;4140018;28;20057;-87
2022/09/04 04:05:06;;;;;;;4.80;1.40;;;14.40;69.90;;;;;;4157478;28;20407;-85
2022/09/04 04:07:26;;;;;;;4.57;1.25;;;14.40;70.90;;;;;;4138357;28;20064;-86
2022/09/04 04:09:41;;;;;;;1.65;1.10;;;14.40;69.60;;;;;;4151319;28;20492;-86
2022/09/04 04:12:09;;;;;;;3.65;1.20;;;14.30;69.60;;;;;;4150885;28;20049;-86
2022/09/04 04:14:44;;;;;;;5.00;1.30;;;14.30;70.70;;;;;;4142095;28;20053;-86
2022/09/04 04:17:16;;;;;;;2.05;1.23;;;14.30;70.80;;;;;;4152057;28;20092;-86
2022/09/04 04:19:32;;;;;;;2.20;1.42;;;14.30;70.40;;;;;;4150286;28;20096;-86
2022/09/04 04:22:02;;;;;;;1.77;1.23;;;14.30;70.60;;;;;;4148864;28;20385;-86
2022/09/04 04:24:19;;;;;;;4.78;1.65;;;14.30;71.00;;;;;;4149427;28;20053;-85
2022/09/04 04:26:37;;;;;;;2.67;1.45;;;14.30;70.50;;;;;;4149377;28;20168;-86
2022/09/04 04:29:00;;;;;;;2.35;1.30;;;14.20;70.70;;;;;;4150606;28;20050;-86
2022/09/04 04:31:23;;;;;;;2.58;1.45;;;14.20;71.00;;;;;;4133332;28;20274;-86
2022/09/04 04:33:49;;;;;;;5.55;1.58;;;14.20;71.60;;;;;;4148518;28;20050;-87
2022/09/04 04:36:12;;;;;;;1.92;1.33;;;14.20;71.50;;;;;;4149073;28;20488;-86
2022/09/04 04:38:26;;;;;;;2.45;1.27;;;14.10;71.70;;;;;;4151015;28;20125;-87
2022/09/04 04:40:37;;;;;;;2.80;1.33;;;14.10;71.70;;;;;;4159756;28;20057;-86
2022/09/04 04:42:45;;;;;;;2.72;1.63;;;14.10;71.20;;;;;;4139251;28;20050;-86
2022/09/04 04:47:39;;;;;;;2.35;1.50;;;14.10;72.20;;;;;;4172837;28;20053;-86
2022/09/04 04:49:56;;;;;;;2.20;1.30;;;14.10;71.50;;;;;;4154402;28;20054;-86
2022/09/04 04:52:34;;;;;;;1.90;1.13;;;14.10;72.10;;;;;;4148589;28;20061;-86
2022/09/04 04:55:05;;;;;;;3.97;1.92;;;14.20;72.50;;;;;;4134583;28;20485;-87
2022/09/04 04:57:32;;;;;;;3.40;1.17;;;14.20;72.50;;;;;;4151810;28;20045;-87
2022/09/04 04:59:44;;;;;;;4.63;1.30;;;14.20;72.00;;;;;;4107832;28;20136;-87
2022/09/04 05:02:00;;;;;;;2.55;1.50;;;14.30;72.10;;;;;;4134509;28;20046;-87
2022/09/04 05:04:09;;;;;;;2.55;1.30;;;14.30;72.10;;;;;;4134578;28;20050;-86
2022/09/04 05:06:20;;;;;;;2.38;1.45;;;14.30;72.40;;;;;;4134331;28;20512;-87
2022/09/04 05:08:46;;;;;;;2.22;1.50;;;14.30;72.20;;;;;;4134142;28;20057;-86
2022/09/04 05:10:59;;;;;;;4.13;1.75;;;14.20;72.70;;;;;;4118134;28;20050;-86
2022/09/04 05:13:23;;;;;;;2.45;1.40;;;14.20;72.50;;;;;;4134593;28;20058;-86
2022/09/04 05:15:24;;;;;;;3.40;1.40;;;14.20;72.80;;;;;;4117763;28;20056;-85
2022/09/04 05:17:51;;;;;;;3.08;1.50;;;14.20;72.50;;;;;;4150022;28;20050;-86
2022/09/04 05:20:20;;;;;;;2.50;1.58;;;14.60;73.20;;;;;;4134191;28;20464;-86
2022/09/04 05:22:37;;;;;;;3.03;1.50;;;14.30;73.40;;;;;;4151585;28;20100;-86
2022/09/04 05:24:54;;;;;;;1.83;1.40;;;14.30;73.30;;;;;;4134236;28;20057;-86
2022/09/04 05:27:01;;;;;;;2.85;1.30;;;14.30;73.20;;;;;;4133870;28;20054;-86
2022/09/04 05:29:17;;;;;;;1.90;1.50;;;14.30;73.00;;;;;;4150569;28;20038;-86
2022/09/04 05:31:21;;;;;;;2.22;1.95;;;14.30;73.30;;;;;;4159824;28;20182;-87
2022/09/04 05:33:39;;;;;;;2.22;1.33;;;14.30;73.10;;;;;;4142419;28;20501;-86
2022/09/04 05:36:11;;;;;;;3.03;1.40;;;14.30;74.00;;;;;;4151863;28;20046;-88
2022/09/04 05:38:37;;;;;;;2.65;1.60;;;14.30;73.70;;;;;;4161559;28;20037;-88
2022/09/04 05:41:02;;;;;;;4.68;1.60;;;14.40;73.60;;;;;;4153737;28;20056;-87
2022/09/04 05:43:05;;;;;;;5.15;1.40;;;14.30;73.70;;;;;;4150098;28;20054;-87
2022/09/04 05:45:18;;;;;;;3.08;1.60;;;13.80;73.30;;;;;;4171982;28;20049;-87
2022/09/04 05:47:32;;;;;;;4.35;1.63;;;14.40;74.00;;;;;;4128167;28;20050;-88
2022/09/04 05:49:58;;;;;;;7.35;1.58;;;14.40;73.90;;;;;;4137039;28;20055;-86
2022/09/04 05:52:19;;;;;;;5.03;1.42;;;14.40;74.00;;;;;;4145387;28;20065;-87
2022/09/04 05:54:46;;;;;;;2.92;1.50;;;14.40;73.60;;;;;;4135536;28;20054;-86
2022/09/04 05:57:40;;;;;;;2.00;1.38;;;14.50;73.70;;;;;;4134173;28;20054;-86
2022/09/04 06:00:05;;;;;;;3.38;1.60;;;14.50;74.70;;;;;;4110886;28;20058;-85
2022/09/04 06:02:31;;;;;;;2.75;1.58;;;14.50;74.20;;;;;;4151908;28;20519;-86
2022/09/04 06:04:51;;;;;;;2.95;1.40;;;14.60;74.70;;;;;;4161238;28;20053;-87
2022/09/04 06:07:07;;;;;;;6.03;1.67;;;14.60;74.50;;;;;;4167952;28;20427;-87
2022/09/04 06:09:20;;;;;;;2.55;1.50;;;14.60;74.10;;;;;;4150133;28;20050;-86
2022/09/04 06:11:51;;;;;;;1.95;1.45;;;14.60;74.20;;;;;;4118112;28;20595;-87
2022/09/04 06:14:03;;;;;;;2.47;1.50;;;14.70;74.60;;;;;;4100150;28;20162;-87
2022/09/04 06:16:36;;;;;;;1.95;1.50;;;14.70;74.40;;;;;;4151015;28;20049;-87
2022/09/04 06:19:01;;;;;;;2.28;1.42;;;14.70;74.60;;;;;;4135551;28;20053;-87
2022/09/04 06:21:02;;;;;;;4.13;2.17;;;14.80;74.80;;;;;;4152173;28;20054;-86
2022/09/04 06:23:40;;;;;;;2.47;1.50;;;14.70;74.00;;;;;;4134646;28;20045;-87
2022/09/04 06:25:52;;;;;;;5.68;1.58;;;14.80;74.90;;;;;;4139953;28;20125;-87
2022/09/04 06:28:08;;;;;;;4.32;1.50;;;14.90;74.20;;;;;;4135344;28;20081;-86
2022/09/04 06:30:14;;;;;;;2.10;1.52;;;14.90;74.40;;;;;;4118078;28;20079;-87
2022/09/04 06:33:06;;;;;;;3.95;1.60;;;14.90;74.10;;;;;;4117805;28;20186;-87
2022/09/04 06:35:26;;;;;;;5.00;2.22;;;15.00;74.60;;;;;;4085130;29;20087;-87
2022/09/04 06:37:27;;;;;;;4.50;1.60;;;15.10;74.00;;;;;;4096740;29;20074;-87
2022/09/04 06:39:49;;;;;;;2.35;1.45;;;15.20;73.70;;;;;;4105062;28;20074;-87
2022/09/04 06:42:05;;;;;;;7.45;1.75;;;15.30;74.10;;;;;;4150519;28;20061;-87
2022/09/04 06:44:30;;;;;;;3.65;1.67;;;15.40;74.20;;;;;;4150732;28;20049;-86
2022/09/04 06:46:52;;;;;;;2.83;1.50;;;15.40;73.90;;;;;;4133039;28;20092;-86
2022/09/04 06:49:08;;;;;;;2.03;1.48;;;15.40;73.60;;;;;;4150730;28;20207;-86
2022/09/04 06:51:22;;;;;;;8.52;1.70;;;15.50;73.80;;;;;;4133702;28;20108;-87
2022/09/04 06:53:36;;;;;;;7.35;1.98;;;15.60;74.10;;;;;;4133797;28;20590;-87
2022/09/04 06:55:52;;;;;;;2.22;1.50;;;15.60;73.50;;;;;;4134060;28;20085;-86
2022/09/04 06:58:30;;;;;;;3.47;1.83;;;15.70;73.40;;;;;;4133811;28;20121;-86
2022/09/04 07:00:45;;;;;;;3.72;1.85;;;15.80;74.00;;;;;;4134771;28;20502;-86
2022/09/04 07:03:22;;;;;;;2.70;1.35;;;16.00;73.20;;;;;;4177285;28;20079;-86
2022/09/04 07:06:12;;;;;;;6.57;1.60;;;16.30;73.60;;;;;;4152240;28;20096;-84
2022/09/04 07:08:48;;;;;;;2.08;1.48;;;16.60;73.70;;;;;;4135737;28;20049;-84
2022/09/04 07:11:06;;;;;;;3.72;1.75;;;16.80;72.80;;;;;;4117299;28;20058;-85
2022/09/04 07:13:28;;;;;;;3.50;2.28;;;16.90;72.00;;;;;;4151502;28;20053;-84
2022/09/04 07:15:47;;;;;;;5.85;2.15;;;17.10;71.40;;;;;;4148424;28;20038;-84
2022/09/04 07:18:07;;;;;;;;;;;17.20;71.30;;;;;;4161449;28;20077;-84
2022/09/04 07:20:29;;;;;;;2.88;1.45;;;17.40;71.90;;;;;;4164095;28;19921;-83
2022/09/04 07:22:38;;;;;;;2.88;1.80;;;17.60;70.90;;;;;;4160556;28;20045;-83
2022/09/04 07:24:55;;;;;;;3.15;1.58;;;17.70;70.50;;;;;;4164428;28;20115;-84
2022/09/04 07:27:34;;;;;;;4.18;1.80;;;17.80;70.20;;;;;;4166033;28;20492;-84
2022/09/04 07:29:35;;;;;;;;;;;17.90;70.00;;;;;;4146082;28;20066;-84
2022/09/04 07:31:53;;;;;;;2.97;1.50;;;18.10;70.80;;;;;;4157310;28;19964;-84
2022/09/04 07:34:15;;;;;;;4.93;1.70;;;18.20;69.30;;;;;;4147979;28;20526;-83
2022/09/04 07:36:47;;;;;;;3.70;2.25;;;18.40;69.60;;;;;;4130419;28;20054;-83
2022/09/04 07:38:55;;;;;;;3.72;1.60;;;18.60;68.90;;;;;;4149779;28;20535;-84
2022/09/04 07:41:18;;;;;;;2.97;1.45;;;18.70;68.40;;;;;;4131008;28;20137;-84
2022/09/04 07:43:38;;;;;;;2.65;1.50;;;18.90;68.70;;;;;;4150215;28;20101;-83
2022/09/04 07:45:49;;;;;;;7.13;1.92;;;19.00;68.50;;;;;;4145348;28;20057;-82
2022/09/04 07:48:04;;;;;;;3.67;1.80;;;19.10;67.90;;;;;;4168104;28;20038;-83
2022/09/04 07:50:25;;;;;;;4.80;2.15;;;19.20;67.60;;;;;;4137620;28;20050;-84
2022/09/04 07:52:34;;;;;;;2.92;1.40;;;19.30;67.40;;;;;;4152643;28;20057;-83
2022/09/04 07:54:38;;;;;;;3.25;1.63;;;19.30;67.40;;;;;;4171345;28;20069;-84
2022/09/04 07:57:00;;;;;;;2.55;1.50;;;19.40;67.40;;;;;;4151237;28;20042;-83
2022/09/04 07:59:19;;;;;;;2.72;1.70;;;19.50;66.90;;;;;;4151192;28;20049;-84
2022/09/04 08:01:46;;;;;;;2.38;1.45;;;19.50;66.50;;;;;;4167420;28;20054;-84
2022/09/04 08:04:20;;;;;;;4.35;1.55;;;19.60;66.70;;;;;;4169706;28;20064;-83
2022/09/04 08:06:43;;;;;;;2.47;1.40;;;19.90;67.70;;;;;;4161787;28;20091;-84
2022/09/04 08:08:49;;;;;;;2.30;1.60;;;20.20;67.10;;;;;;4185274;28;20439;-84
2022/09/04 08:11:24;;;;;;;3.42;1.60;;;20.50;66.50;;;;;;4165581;28;20504;-87
2022/09/04 08:14:00;;;;;;;4.72;1.48;;;20.70;65.50;;;;;;4184434;28;20055;-85
2022/09/04 08:16:07;;;;;;;6.45;2.53;;;20.80;65.00;;;;;;4177130;28;20045;-84
2022/09/04 08:18:34;;;;;;;2.50;1.52;;;20.80;64.20;;;;;;4149097;28;20107;-85
2022/09/04 08:21:27;;;;;;;5.38;1.88;;;21.10;63.00;;;;;;4171509;28;20056;-88
2022/09/04 08:24:15;;;;;;;4.65;1.60;;;20.80;62.10;;;;;;4125537;28;20049;-89
2022/09/04 08:26:54;;;;;;;1.77;1.55;;;21.00;63.00;;;;;;4139858;28;20176;-91
2022/09/04 08:29:01;;;;;;;;;;;21.20;61.90;;;;;;4134504;28;20116;-86
2022/09/04 08:31:30;;;;;;;2.53;1.42;;;21.30;62.30;;;;;;4134992;28;20392;-86
2022/09/04 08:33:50;;;;;;;;;;;21.50;62.50;;;;;;4136136;28;20097;-87
2022/09/04 08:36:00;;;;;;;2.35;1.60;;;21.80;62.90;;;;;;4145955;28;19921;-87
2022/09/04 08:38:31;;;;;;;4.38;1.60;;;22.10;61.80;;;;;;4164205;28;20049;-87
2022/09/04 08:40:47;;;;;;;3.55;1.73;;;22.30;61.00;;;;;;4141011;28;20106;-88
2022/09/04 08:43:12;;;;;;;4.95;1.30;;;22.30;61.00;;;;;;4162418;28;20791;-89
2022/09/04 08:45:57;;;;;;;2.50;1.40;;;22.20;60.70;;;;;;4145264;28;20050;-89
2022/09/04 08:48:22;;;;;;;5.07;1.73;;;22.20;61.10;;;;;;4110420;28;20900;-88
2022/09/04 08:50:26;;;;;;;8.32;1.58;;;22.50;60.60;;;;;;4164494;28;20041;-88
2022/09/04 08:53:05;;;;;;;2.00;1.38;;;22.70;60.50;;;;;;4133753;28;20126;-87
2022/09/04 08:55:46;;;;;;;3.60;1.50;;;23.10;60.60;;;;;;4147601;28;20034;-87
2022/09/04 08:58:30;;;;;;;3.10;1.52;;;23.30;58.60;;;;;;4143602;28;20058;-85
2022/09/04 09:00:58;;;;;;;2.60;1.42;;;23.30;58.40;;;;;;4157070;28;20085;-87
2022/09/04 09:03:11;;;;;;;1.90;1.42;;;23.40;58.70;;;;;;4146126;28;20500;-87
2022/09/04 09:05:42;;;;;;;3.13;1.55;;;23.50;58.70;;;;;;4146318;28;20103;-87
2022/09/04 09:08:25;;;;;;;2.05;1.10;;;23.80;57.70;;;;;;4164501;28;20427;-87
2022/09/04 09:10:50;;;;;;;2.40;1.65;;;23.70;58.30;;;;;;4160210;28;20584;-87
2022/09/04 09:13:19;;;;;;;4.47;1.35;;;24.10;58.00;;;;;;4124531;28;20080;-88
2022/09/04 09:15:59;;;;;;;3.33;1.23;;;24.20;56.50;;;;;;4150022;28;20042;-88
2022/09/04 09:18:40;;;;;;;3.78;1.33;;;24.60;58.30;;;;;;4150998;28;20042;-88
2022/09/04 09:21:00;;;;;;;3.22;1.23;;;24.80;55.40;;;;;;4151899;28;20072;-87
2022/09/04 09:23:17;;;;;;;3.33;1.30;;;24.90;54.70;;;;;;4139868;28;20128;-86
2022/09/04 09:25:32;;;;;;;2.55;1.30;;;25.00;54.70;;;;;;4144469;28;20398;-87
2022/09/04 09:28:10;;;;;;;3.50;1.50;;;25.10;55.20;;;;;;4139020;28;20124;-87
2022/09/04 09:30:18;;;;;;;6.03;1.10;;;25.50;55.20;;;;;;4138392;28;20077;-89
2022/09/04 09:32:46;;;;;;;3.58;1.40;;;25.90;55.30;;;;;;4145050;28;20045;-87
2022/09/04 09:34:59;;;;;;;7.90;1.50;;;26.30;54.70;;;;;;4133524;28;20046;-88
2022/09/04 09:37:27;;;;;;;4.43;1.10;;;26.70;53.80;;;;;;4132705;28;20093;-87
2022/09/04 09:39:47;;;;;;;2.92;1.10;;;27.00;54.00;;;;;;4161171;28;20042;-86
2022/09/04 09:42:01;;;;;;;3.58;1.52;;;27.50;53.20;;;;;;4151305;28;20050;-86
2022/09/04 09:44:04;;;;;;;2.05;1.00;;;27.40;51.00;;;;;;4151824;28;20038;-85
2022/09/04 09:46:37;;;;;;;3.63;1.05;;;27.20;52.30;;;;;;4148495;28;20156;-86
2022/09/04 09:49:10;;;;;;;6.05;1.08;;;27.20;50.60;;;;;;4104601;28;20054;-86
2022/09/04 09:51:17;;;;;;;1.80;1.10;;;27.20;50.70;;;;;;4148592;28;20129;-86
2022/09/04 09:53:40;;;;;;;5.30;1.65;;;27.40;52.20;;;;;;4148634;28;20519;-87
2022/09/04 09:55:43;;;;;;;4.28;1.42;;;27.20;51.30;;;;;;4149737;28;20041;-86
2022/09/04 09:58:21;;;;;;;2.85;1.00;;;27.30;51.90;;;;;;4132473;28;20073;-87
2022/09/04 10:00:26;;;;;;;1.60;1.00;;;27.50;51.70;;;;;;4139654;28;20056;-86
2022/09/04 10:02:59;;;;;;;1.60;1.10;;;27.70;52.30;;;;;;4155036;28;20076;-86
2022/09/04 10:05:30;;;;;;;4.28;1.20;;;27.80;50.80;;;;;;4096371;28;20086;-86
2022/09/04 10:08:09;;;;;;;4.05;0.90;;;27.80;49.20;;;;;;4133700;28;20050;-85
2022/09/04 10:10:44;;;;;;;1.20;0.93;;;27.80;49.40;;;;;;4157133;28;20053;-86
2022/09/04 10:13:29;;;;;;;2.03;1.00;;;27.80;49.80;;;;;;4160180;28;20053;-87
2022/09/04 10:15:55;;;;;;;1.52;0.98;;;28.00;49.60;;;;;;4159534;28;20042;-87
2022/09/04 10:18:18;;;;;;;1.15;1.05;;;28.20;50.40;;;;;;4146585;28;20100;-86
2022/09/04 10:20:45;;;;;;;1.33;0.93;;;28.40;49.60;;;;;;4102277;28;20085;-86
2022/09/04 10:22:48;;;;;;;2.47;0.98;;;28.40;48.70;;;;;;4176389;28;20050;-86
2022/09/04 10:25:22;;;;;;;2.70;0.80;;;28.50;48.80;;;;;;4177646;28;20052;-85
2022/09/04 10:28:00;;;;;;;1.17;0.80;;;28.40;45.90;;;;;;4144354;28;20102;-87
2022/09/04 10:30:09;;;;;;;4.43;1.05;;;28.20;47.60;;;;;;4177833;28;20423;-86
2022/09/04 10:32:21;;;;;;;4.97;1.20;;;28.10;48.50;;;;;;4178080;28;20071;-86
2022/09/04 10:34:42;;;;;;;2.38;0.93;;;28.00;46.90;;;;;;4176553;28;20077;-86
2022/09/04 10:36:53;;;;;;;2.08;1.00;;;28.00;48.50;;;;;;4172523;28;20129;-86
2022/09/04 10:42:32;;;;;;;1.75;1.20;;;28.80;47.30;;;;;;4166838;28;20448;-87
2022/09/04 10:45:14;;;;;;;2.65;0.77;;;29.20;46.50;;;;;;4132967;28;20093;-86
2022/09/04 10:47:43;;;;;;;2.15;1.00;;;29.30;46.30;;;;;;4149512;28;20460;-87
2022/09/04 10:49:52;;;;;;;5.30;1.05;;;29.30;45.60;;;;;;4149118;28;20081;-87
2022/09/04 10:52:08;;;;;;;3.83;0.90;;;29.20;46.30;;;;;;4167715;28;20050;-86
2022/09/04 10:54:13;;;;;;;3.40;1.17;;;29.20;46.50;;;;;;4166645;28;20472;-86
2022/09/04 10:56:33;;;;;;;3.92;1.00;;;29.00;45.10;;;;;;4149223;28;20368;-87
2022/09/04 10:58:43;;;;;;;4.90;1.05;;;28.80;46.30;;;;;;4166838;28;20072;-87
2022/09/04 11:01:23;;;;;;;6.43;1.00;;;28.60;46.20;;;;;;4169178;28;20053;-87
2022/09/04 11:04:02;;;;;;;1.95;1.00;;;28.70;47.00;;;;;;4170323;28;20080;-87
2022/09/04 11:06:36;;;;;;;5.47;1.20;;;28.80;45.70;;;;;;4172323;28;20616;-86
2022/09/04 11:09:13;;;;;;;3.28;1.50;;;28.80;45.60;;;;;;4156648;28;20053;-87
2022/09/04 11:11:19;;;;;;;6.00;1.85;;;28.40;45.20;;;;;;4140011;28;20054;-87
2022/09/04 11:13:39;;;;;;;2.63;1.00;;;28.10;46.70;;;;;;4135120;28;20046;-87
2022/09/04 11:16:04;;;;;;;1.35;0.98;;;28.20;47.00;;;;;;4167002;28;20056;-86
2022/09/04 11:18:07;;;;;;;2.78;1.25;;;28.40;47.00;;;;;;4132681;28;20054;-87
2022/09/04 11:20:55;;;;;;;7.13;1.10;;;28.60;46.60;;;;;;4149619;28;20058;-87
2022/09/04 11:23:03;;;;;;;1.98;1.10;;;28.80;46.20;;;;;;4089284;29;20139;-86
2022/09/04 11:25:26;;;;;;;1.73;1.00;;;29.20;47.10;;;;;;4073295;29;20048;-86
2022/09/04 11:27:29;;;;;;;1.85;1.00;;;29.60;46.30;;;;;;4102834;28;20058;-87
2022/09/04 11:29:58;;;;;;;1.48;1.10;;;29.90;45.90;;;;;;4153817;28;20058;-86
2022/09/04 11:32:36;;;;;;;3.28;1.05;;;30.20;45.60;;;;;;4128707;28;20112;-87
2022/09/04 11:35:01;;;;;;;2.83;1.13;;;30.10;43.60;;;;;;4166996;28;20488;-86
2022/09/04 11:37:21;;;;;;;2.78;1.10;;;29.80;43.70;;;;;;4166432;28;20443;-87
2022/09/04 11:39:41;;;;;;;3.47;1.10;;;29.90;45.70;;;;;;4164541;28;20046;-85
2022/09/04 11:42:02;;;;;;;2.20;0.88;;;30.20;43.50;;;;;;4166348;28;20105;-86
2022/09/04 11:44:26;;;;;;;2.05;1.10;;;30.30;44.10;;;;;;4164373;28;20050;-86
2022/09/04 11:47:33;;;;;;;3.58;1.00;;;30.60;44.30;;;;;;4165915;28;20155;-85
2022/09/04 11:49:46;;;;;;;6.97;2.35;;;30.80;43.60;;;;;;4118905;28;20062;-86
2022/09/04 11:52:15;;;;;;;2.58;1.10;;;30.80;44.00;;;;;;4152186;28;20049;-86
2022/09/04 11:54:36;;;;;;;1.77;1.13;;;30.80;43.90;;;;;;4147250;28;20077;-87
2022/09/04 11:56:57;;;;;;;4.30;1.13;;;30.70;43.90;;;;;;4169146;28;20045;-87
2022/09/04 11:59:16;;;;;;;1.65;0.90;;;30.50;42.80;;;;;;4135846;28;20054;-87
2022/09/04 12:01:26;;;;;;;3.35;1.20;;;30.20;44.00;;;;;;4152230;28;20046;-87
2022/09/04 12:03:30;;;;;;;8.32;1.30;;;30.30;44.70;;;;;;4169107;28;20049;-87
2022/09/04 12:05:50;;;;;;;4.35;1.15;;;30.40;44.40;;;;;;4169141;28;20488;-87
2022/09/04 12:08:26;;;;;;;2.67;1.25;;;30.70;44.30;;;;;;4167737;28;20045;-87
2022/09/04 12:10:49;;;;;;;3.72;1.13;;;30.90;43.50;;;;;;4167316;28;20042;-86
2022/09/04 12:13:13;;;;;;;2.75;0.90;;;31.20;45.10;;;;;;4167092;28;20045;-85
2022/09/04 12:15:29;;;;;;;4.43;1.30;;;31.50;43.20;;;;;;4133221;28;20121;-86
2022/09/04 12:18:01;;;;;;;3.78;1.13;;;31.90;44.10;;;;;;4149693;28;20054;-86
2022/09/04 12:20:08;;;;;;;9.43;1.50;;;32.10;43.50;;;;;;4120489;28;20050;-86
2022/09/04 12:22:50;;;;;;;5.68;1.10;;;32.20;43.30;;;;;;4164713;28;20078;-87